North Spring Valley, Nevada Weather observations

Data are for 10 minute period ending at time listed.
 Day   Time   Solar   Ave.   Ave.  Ave.  Vector  Max.   Baro.   Total    
  of    of     Rad.   Air    Rel.  Wind   Wind   Wind  Press.  Precip.   
Year   Day            Temp.  Hum.  Speed  Dir.   Gust                    
2016   (PST)  Kw/m2    F      %     mph   deg.    mph    mb.     in.     
-------------------------------------------------------------------------
 342   23:20   0.00   16.9    68    2.0   134     2.9   831.7    0.00 
 342   23:30   0.00   16.7    69    1.9    96     2.9   831.8    0.00 
 342   23:40   0.00   16.6    70    2.1    94     3.6   831.7    0.00 
 342   23:50   0.00   16.1    68    0.9    92     2.1   831.7    0.00 
 343    0:00   0.00   16.0    68    0.3   167     2.1   831.7    0.00 
 343    0:10   0.00   16.1    68    1.0   156     2.2   831.6    0.00 
 343    0:20   0.00   16.2    68    1.7   148     2.7   831.4    0.00 
 343    0:30   0.00   16.2    68    1.0   158     2.2   831.2    0.00 
 343    0:40   0.00   16.1    69    0.2   244     2.0   831.4    0.00 
 343    0:50   0.00   16.3    70    0.8   284     2.0   831.4    0.00 
 343    1:00   0.00   16.3    68    0.1   234     0.9   830.9    0.00 
 343    1:10   0.00   16.6    68    0.8   145     2.5   831.1    0.00 
 343    1:20   0.00   16.7    70    2.5    60     3.4   831.4    0.00 
 343    1:30   0.00   16.4    71    1.2    46     2.6   831.6    0.00 
 343    1:40   0.00   16.5    71    1.6    37     2.9   831.6    0.00 
 343    1:50   0.00   16.4    71    1.4    27     2.9   831.6    0.00 
 343    2:00   0.00   16.5    70    1.8   107     2.6   831.4    0.00 
 343    2:10   0.00   16.6    70    3.0   157     4.4   831.3    0.00 
 343    2:20   0.00   16.7    70    2.8   186     4.6   831.1    0.00 
 343    2:30   0.00   16.6    72    1.3   234     2.6   831.3    0.00 
 343    2:40   0.00   16.5    75    1.7   225     3.1   831.2    0.00 
 343    2:50   0.00   16.2    78    2.2   209     4.2   831.1    0.00 
 343    3:00   0.00   16.2    80    2.5   225     4.1   831.1    0.00 
 343    3:10   0.00   16.6    80    2.5   232     3.8   831.1    0.00 
 343    3:20   0.00   16.8    80    1.6   197     3.2   830.9    0.00 
 343    3:30   0.00   16.9    80    0.5   218     2.2   831.0    0.00 
 343    3:40   0.00   17.0    80    0.7   223     2.0   831.0    0.00 
 343    3:50   0.00   16.3    80    3.3    67     4.6   831.0    0.00 
 343    4:00   0.00   15.6    80    2.2    99     3.4   830.8    0.00 
 343    4:10   0.00   15.7    81    2.7   152     4.0   830.6    0.00 
 343    4:20   0.00   15.6    81    1.8   146     2.9   830.7    0.00 
 343    4:30   0.00   15.5    81    1.2    82     2.9   830.7    0.00 
 343    4:40   0.00   15.7    81    1.5    88     3.1   830.7    0.00 
 343    4:50   0.00   15.5    80    3.2   113     4.2   830.7    0.00 
 343    5:00   0.00   15.6    80    1.8   141     4.2   830.7    0.00 
 343    5:10   0.00   15.7    81    1.4   246     2.8   830.8    0.00 
 343    5:20   0.00   15.9    82    2.3   280     3.4   830.7    0.00 
 343    5:30   0.00   16.3    83    2.4   297     3.7   830.8    0.00 
 343    5:40   0.00   16.6    83    2.3   345     3.9   830.9    0.00 
 343    5:50   0.00   17.0    82    1.9     1     3.1   831.0    0.00 
 343    6:00   0.00   17.1    82    1.0   329     2.6   831.0    0.00 
 343    6:10   0.00   17.1    81    0.0   112     0.9   830.8    0.00 
 343    6:20   0.00   17.2    80    0.5   158     3.1   830.7    0.00 
 343    6:30   0.00   17.3    80    1.9   204     3.1   830.8    0.00 
 343    6:40   0.00   17.5    79    1.1   198     2.9   830.7    0.00 
 343    6:50   0.01   17.5    79    2.1    53     4.3   830.7    0.00 
 343    7:00   0.01   17.1    81    2.6    65     3.7   830.6    0.00 
 343    7:10   0.02   17.1    81    1.3   108     2.6   830.5    0.00 
 343    7:20   0.03   17.4    81    0.3   120     1.5   830.5    0.00 
 343    7:30   0.03   17.7    80    0.2   142     1.6   830.5    0.00 
 343    7:40   0.03   18.1    80    0.5   216     1.6   830.5    0.00 
 343    7:50   0.04   18.6    79    0.5     1     2.0   830.6    0.00 
 343    8:00   0.05   18.9    78    1.1   108     2.5   830.5    0.00 
 343    8:10   0.06   19.0    78    1.4    43     2.9   830.5    0.00 
 343    8:20   0.07   19.3    76    1.2   115     2.7   830.5    0.00 
 343    8:30   0.07   19.7    74    0.8   124     4.5   830.3    0.00 
 343    8:40   0.10   19.7    70    1.4   144     4.1   830.4    0.00 
 343    8:50   0.10   19.9    70    2.4   136     4.2   830.4    0.00 
 343    9:00   0.10   20.0    69    1.5   130     3.7   830.3    0.00 
 343    9:10   0.12   20.5    68    1.1   128     3.1   830.3    0.00 
 343    9:20   0.16   21.1    66    0.7   182     2.1   830.3    0.00 
 343    9:30   0.14   21.3    64    1.6    45     3.7   830.4    0.00 
 343    9:40   0.15   21.2    64    2.0    84     5.0   830.2    0.00 
 343    9:50   0.15   22.0    63    1.9    11     3.3   830.3    0.00 
 343   10:00   0.15   22.2    62    2.3    22     4.3   830.4    0.00 
 343   10:10   0.15   22.5    62    1.4    32     5.9   830.1    0.00 
 343   10:20   0.21   23.1    60    1.5    75     3.8   829.7    0.00 
 343   10:30   0.17   23.6    59    0.8    29     2.7   829.4    0.00 
 343   10:40   0.29   24.2    58    1.3   338     3.7   829.2    0.00 
 343   10:50   0.47   25.8    55    1.8   255     4.1   828.8    0.00 
 343   11:00   0.61   28.6    52    1.1   349     3.9   828.6    0.00 
 343   11:10   0.55   30.5    47    1.9   122     5.0   828.3    0.00 
 343   11:20   0.60   32.3    42    3.5   137     7.6   827.9    0.00 
 343   11:30   0.60   33.2    40    2.7   176     5.9   827.8    0.00 
 343   11:40   0.33   34.1    37    5.1   126     9.7   827.6    0.00 
 343   11:50   0.38   35.5    34    4.2   167     7.8   827.2    0.00 
 343   12:00   0.48   39.3    30    7.6   168    17.8   827.1    0.00 
 343   12:10   0.55   41.6    28   11.9   175    22.4   827.0    0.00 
 343   12:20   0.54   42.2    27   15.3   176    23.7   826.9    0.00 
 343   12:30   0.52   42.5    27   17.2   175    26.7   826.8    0.00 
 343   12:40   0.40   42.9    27   17.8   173    25.4   826.7    0.00 
 343   12:50   0.49   43.4    27   17.4   170    26.5   826.6    0.00 
 343   13:00   0.46   43.5    26   19.4   181    26.4   826.6    0.00 
 343   13:10   0.42   43.7    27   17.5   185    24.1   826.6    0.00 
 343   13:20   0.36   44.3    26   17.8   183    23.9   826.4    0.00 
 343   13:30   0.22   43.7    27   18.0   186    25.3   826.2    0.00 
 343   13:40   0.24   43.8    28   17.4   177    25.2   826.1    0.00 
 343   13:50   0.21   44.4    28   17.7   184    26.0   826.2    0.00 
 343   14:00   0.17   44.2    27   16.6   181    25.0   826.4    0.00 
 343   14:10   0.14   43.8    27   18.6   178    25.6   826.5    0.00 
 343   14:20   0.11   43.9    27   16.0   189    25.2   826.5    0.00 
 343   14:30   0.09   44.2    27   17.5   178    26.2   826.5    0.00 
 343   14:40   0.10   44.1    27   15.2   178    24.8   826.6    0.00 
 343   14:50   0.09   43.8    26   18.1   178    28.0   826.5    0.00 
 343   15:00   0.07   43.7    26   20.5   174    27.7   826.5    0.00 
 343   15:10   0.07   43.3    26   14.4   191    24.3   826.8    0.00 
 343   15:20   0.06   42.7    26   14.5   185    24.4   827.1    0.00 
 343   15:30   0.06   42.4    26   15.8   184    25.4   827.1    0.00 
 343   15:40   0.04   42.4    26   18.7   180    29.7   827.0    0.00 
 343   15:50   0.03   42.4    27   17.2   178    22.9   827.2    0.00 
 343   16:00   0.02   41.8    26   16.7   185    26.8   827.3    0.00 
 343   16:10   0.01   41.5    27   17.8   181    27.2   827.2    0.00 
 343   16:20   0.00   41.5    27   17.3   182    27.0   827.3    0.00 
 343   16:30   0.00   41.1    27   17.5   184    24.6   827.4    0.00 
 343   16:40   0.00   41.1    28   16.9   184    22.7   827.4    0.00 
 343   16:50   0.00   41.1    28   16.2   185    24.4   827.5    0.00 
 343   17:00   0.00   40.8    28   17.6   185    26.0   827.6    0.00 
 343   17:10   0.00   40.5    29   17.6   186    25.1   827.6    0.00 
 343   17:20   0.00   40.6    30   16.0   186    25.9   827.7    0.00 
 343   17:30   0.00   40.6    30   15.0   177    24.0   827.9    0.00 
 343   17:40   0.00   40.4    31   11.5   205    27.7   828.1    0.00 
 343   17:50   0.00   40.8    33    9.3   174    19.1   828.3    0.00 
 343   18:00   0.00   38.9    31   11.9   164    20.5   828.3    0.00 
 343   18:10   0.00   39.0    31   11.3   198    20.8   828.4    0.00 
 343   18:20   0.00   39.0    31   13.5   184    23.4   828.4    0.00 
 343   18:30   0.00   38.9    33   11.0   177    19.1   828.7    0.00 
 343   18:40   0.00   39.6    36   10.3   149    18.9   828.8    0.00 
 343   18:50   0.00   39.4    39    8.3   158    14.0   828.8    0.00 
 343   19:00   0.00   39.9    39    9.2   129    30.5   828.6    0.00 
 343   19:10   0.00   39.4    35   10.3   158    21.3   828.8    0.00 
 343   19:20   0.00   38.7    33    9.5   156    17.9   828.7    0.00 
 343   19:30   0.00   37.8    34    7.6   166    15.3   828.9    0.00 
 343   19:40   0.00   37.8    34    7.2   136    11.0   828.9    0.00 
 343   19:50   0.00   37.2    34    3.8   137     8.3   828.9    0.00 
 343   20:00   0.00   37.0    34    0.9   120     2.1   828.9    0.00 
 343   20:10   0.00   36.6    36    1.2   156     3.3   828.9    0.00 
 343   20:20   0.00   34.4    42    2.7   333     4.6   828.9    0.00 
 343   20:30   0.00   34.2    42    2.9    77     4.6   828.9    0.00 
 343   20:40   0.00   34.9    37    6.3   112    11.1   828.9    0.00 
 343   20:50   0.00   34.4    35    3.3   146     7.4   829.2    0.00 
 343   21:00   0.00   34.2    34    5.4   143    10.8   829.2    0.00 
 343   21:10   0.00   34.1    33    3.6   178    10.2   829.2    0.00 
 343   21:20   0.00   33.9    33    2.3   216     9.2   829.2    0.00 
 343   21:30   0.00   34.0    33    3.7   217    11.1   829.3    0.00 
 343   21:40   0.00   33.8    35    2.7   239     8.7   829.4    0.00 
 343   21:50   0.00   32.1    43    4.6   316     8.0   829.4    0.00 
 343   22:00   0.00   30.5    48    4.3   322     7.9   829.4    0.00 
 343   22:10   0.00   29.7    51    4.2   301     6.3   829.3    0.00 
 343   22:20   0.00   30.7    48    2.7   254     6.5   829.4    0.00 
 343   22:30   0.00   31.1    46    2.3   214     5.3   829.3    0.00 
 343   22:40   0.00   29.9    50    4.1   284     7.9   829.3    0.00 
 343   22:50   0.00   29.5    51    5.4   298     8.6   829.4    0.00 
 343   23:00   0.00   29.4    51    3.9   282     6.4   829.1    0.00 
 343   23:10   0.00   29.2    50    2.9   351     5.1   829.1    0.00 

Return to North Spring Valley graphs page.


Western Regional Climate Center,wrcc@dri.edu